Time;durP1;ratioP1;P1;durP2;ratioP2;P2;SDS_P1;SDS_P2;PMS_P1;PMS_P2;Temp;Humidity;BMP_temperature;BMP_pressure;BME280_temperature;BME280_humidity;BME280_pressure;Samples;Min_cycle;Max_cycle;Signal;HPM_P1;HPM_P2
2021/07/31 02:40:04;;;;;;;5.68;3.70;;;16.90;99.90;;;;;;6186985;23;20434;-74
2021/07/31 02:42:33;;;;;;;4.40;4.00;;;16.90;99.90;;;;;;6160481;23;20195;-74
2021/07/31 02:45:05;;;;;;;5.80;3.90;;;16.90;99.90;;;;;;6160549;23;20386;-74
2021/07/31 02:47:34;;;;;;;3.90;3.50;;;16.80;99.90;;;;;;6195990;23;20403;-73
2021/07/31 02:50:03;;;;;;;4.67;3.13;;;16.90;99.90;;;;;;6196703;23;20169;-74
2021/07/31 02:52:35;;;;;;;3.10;2.80;;;16.90;99.90;;;;;;6161027;23;20489;-74
2021/07/31 02:55:06;;;;;;;3.83;3.17;;;16.80;99.90;;;;;;6160448;23;20442;-73
2021/07/31 02:57:35;;;;;;;3.23;2.93;;;16.80;99.90;;;;;;6197056;23;20431;-73
2021/07/31 03:00:07;;;;;;;3.83;3.43;;;16.70;99.90;;;;;;6160331;23;20522;-73
2021/07/31 03:02:35;;;;;;;6.00;4.07;;;16.70;99.90;;;;;;6160230;23;20431;-74
2021/07/31 03:05:08;;;;;;;3.77;2.97;;;16.70;99.90;;;;;;6159679;23;20738;-73
2021/07/31 03:07:37;;;;;;;4.70;3.40;;;16.70;99.90;;;;;;6160575;23;20430;-73
2021/07/31 03:10:11;;;;;;;4.75;3.17;;;16.70;99.90;;;;;;6160114;23;20870;-73
2021/07/31 03:12:41;;;;;;;7.33;3.10;;;16.70;99.90;;;;;;6160252;23;20721;-73
2021/07/31 03:15:10;;;;;;;6.60;3.33;;;16.70;99.90;;;;;;6196514;23;20486;-73
2021/07/31 03:17:39;;;;;;;4.03;3.13;;;16.70;99.90;;;;;;6160187;23;20382;-72
2021/07/31 03:20:08;;;;;;;3.70;3.13;;;16.60;99.90;;;;;;6186275;23;20891;-73
2021/07/31 03:22:38;;;;;;;6.43;3.53;;;16.60;99.90;;;;;;6160352;23;20442;-73
2021/07/31 03:25:10;;;;;;;6.13;3.10;;;16.60;99.90;;;;;;6160100;23;20419;-73
2021/07/31 03:27:42;;;;;;;3.50;3.00;;;16.60;99.90;;;;;;6160113;23;20386;-73
2021/07/31 03:30:13;;;;;;;5.87;3.47;;;16.60;99.90;;;;;;6160307;23;20411;-73
2021/07/31 03:32:56;;;;;;;6.00;3.20;;;16.60;99.90;;;;;;6160032;23;21001;-73
2021/07/31 03:35:25;;;;;;;8.05;3.70;;;16.50;99.90;;;;;;6160862;23;20415;-73
2021/07/31 03:38:12;;;;;;;3.80;2.70;;;16.50;99.90;;;;;;6186625;23;20230;-73
2021/07/31 03:40:44;;;;;;;4.82;4.43;;;16.50;99.90;;;;;;6159773;23;20461;-73
2021/07/31 03:43:14;;;;;;;3.80;3.10;;;16.50;99.90;;;;;;6161078;23;20172;-72
2021/07/31 03:45:42;;;;;;;4.20;3.20;;;16.50;99.90;;;;;;6196233;23;20427;-73
2021/07/31 03:48:10;;;;;;;3.67;3.27;;;16.50;99.90;;;;;;6160320;23;20443;-73
2021/07/31 03:50:40;;;;;;;5.23;3.53;;;16.50;99.90;;;;;;6159815;23;20466;-73
2021/07/31 03:53:10;;;;;;;4.83;3.17;;;16.50;99.90;;;;;;6159992;23;20766;-73
2021/07/31 03:55:45;;;;;;;5.50;3.70;;;16.50;99.90;;;;;;6159947;23;20431;-73
2021/07/31 03:58:15;;;;;;;4.87;2.73;;;16.40;99.90;;;;;;6186321;23;20806;-73
2021/07/31 04:00:44;;;;;;;5.37;3.60;;;16.50;99.90;;;;;;6159916;23;20386;-73
2021/07/31 04:03:12;;;;;;;4.27;2.97;;;16.40;99.90;;;;;;6196829;23;20874;-73
2021/07/31 04:05:45;;;;;;;7.83;5.80;;;16.40;99.90;;;;;;6159621;23;20415;-73
2021/07/31 04:08:31;;;;;;;5.27;3.47;;;16.40;99.90;;;;;;6186245;23;20430;-73
2021/07/31 04:11:22;;;;;;;6.33;3.17;;;16.40;99.90;;;;;;6185816;23;20403;-73
2021/07/31 04:14:23;;;;;;;9.07;6.80;;;16.40;99.90;;;;;;6185813;23;20414;-73
2021/07/31 04:17:02;;;;;;;5.13;3.80;;;16.40;99.90;;;;;;6159751;23;20408;-73
2021/07/31 04:19:31;;;;;;;5.37;3.00;;;16.40;99.90;;;;;;6159735;23;20420;-72
2021/07/31 04:22:01;;;;;;;3.53;3.23;;;16.40;99.90;;;;;;6159657;23;20439;-73
2021/07/31 04:24:37;;;;;;;5.40;2.93;;;16.40;99.90;;;;;;6160274;23;20378;-73
2021/07/31 04:27:05;;;;;;;4.70;3.57;;;16.40;99.90;;;;;;6186379;23;20466;-72
2021/07/31 04:29:35;;;;;;;6.63;3.37;;;16.40;99.90;;;;;;6195843;23;20427;-72
2021/07/31 04:32:03;;;;;;;3.40;2.90;;;16.40;99.90;;;;;;6195835;23;20786;-72
2021/07/31 04:34:31;;;;;;;3.80;3.10;;;16.40;99.90;;;;;;6186220;23;20406;-72
2021/07/31 04:37:00;;;;;;;4.83;3.20;;;16.40;99.90;;;;;;6195840;23;20378;-73
2021/07/31 04:39:28;;;;;;;4.82;3.67;;;16.40;99.90;;;;;;6194473;23;20713;-72
2021/07/31 04:41:56;;;;;;;5.30;3.10;;;16.50;99.90;;;;;;6160084;23;20247;-72
2021/07/31 04:44:24;;;;;;;4.40;3.50;;;16.50;99.90;;;;;;6158315;23;20518;-73
2021/07/31 04:46:54;;;;;;;4.07;3.07;;;16.60;99.90;;;;;;6195740;23;20171;-73
2021/07/31 04:49:22;;;;;;;5.03;3.10;;;16.60;99.90;;;;;;6195806;23;20512;-73
2021/07/31 04:51:51;;;;;;;4.10;3.60;;;16.60;99.90;;;;;;6159301;23;20413;-73
2021/07/31 04:54:19;;;;;;;5.07;3.23;;;16.50;99.90;;;;;;6159416;23;20416;-73
2021/07/31 04:56:47;;;;;;;4.73;3.47;;;16.50;99.90;;;;;;6195717;23;20431;-73
2021/07/31 04:59:19;;;;;;;4.83;3.60;;;16.50;99.90;;;;;;6159325;23;20416;-73
2021/07/31 05:01:47;;;;;;;5.47;3.57;;;16.50;99.90;;;;;;6159528;23;20443;-73
2021/07/31 05:04:18;;;;;;;6.70;3.30;;;16.50;99.90;;;;;;6159316;23;20494;-73
2021/07/31 05:06:46;;;;;;;4.70;3.80;;;16.50;99.90;;;;;;6196233;23;20443;-73
2021/07/31 05:09:15;;;;;;;5.30;3.75;;;16.50;99.90;;;;;;6195141;23;20957;-73
2021/07/31 05:11:43;;;;;;;7.27;3.70;;;16.50;99.90;;;;;;6195503;23;20199;-73
2021/07/31 05:14:14;;;;;;;4.70;3.23;;;16.50;99.90;;;;;;6159212;23;20478;-73
2021/07/31 05:16:42;;;;;;;3.87;3.10;;;16.50;99.90;;;;;;6159168;23;20483;-73
2021/07/31 05:19:11;;;;;;;7.03;4.20;;;16.50;99.90;;;;;;6159282;23;20871;-73
2021/07/31 05:21:40;;;;;;;6.23;4.93;;;16.50;99.90;;;;;;6195385;23;20420;-73
2021/07/31 05:24:08;;;;;;;4.33;3.90;;;16.60;99.90;;;;;;6195543;23;20406;-73
2021/07/31 05:26:37;;;;;;;5.07;3.50;;;16.60;99.90;;;;;;6159309;23;20438;-73
2021/07/31 05:29:06;;;;;;;7.30;4.00;;;16.60;99.90;;;;;;6159006;23;20439;-73
2021/07/31 05:31:35;;;;;;;4.27;3.13;;;16.70;99.90;;;;;;6195455;23;20752;-73
2021/07/31 05:34:03;;;;;;;5.53;4.20;;;16.70;99.90;;;;;;6195470;23;20404;-73
2021/07/31 05:36:35;;;;;;;5.93;3.33;;;16.80;99.90;;;;;;6195269;23;20403;-73
2021/07/31 05:39:04;;;;;;;5.83;3.90;;;16.80;99.90;;;;;;6197126;23;20435;-73
2021/07/31 05:41:32;;;;;;;3.30;3.00;;;16.80;99.90;;;;;;6196033;23;20490;-73
2021/07/31 05:44:00;;;;;;;5.23;3.60;;;16.90;99.90;;;;;;6185630;23;20204;-73
2021/07/31 05:46:29;;;;;;;5.75;3.55;;;17.00;99.90;;;;;;6159229;23;20870;-73
2021/07/31 05:48:57;;;;;;;5.30;3.67;;;17.00;99.90;;;;;;6195420;23;20169;-73
2021/07/31 05:51:25;;;;;;;8.33;3.60;;;17.00;99.90;;;;;;6185719;23;20427;-73
2021/07/31 05:57:06;;;;;;;6.37;3.60;;;17.20;99.90;;;;;;6185765;23;20427;-70
2021/07/31 05:59:35;;;;;;;5.63;3.67;;;17.30;99.90;;;;;;6195495;23;20460;-70
2021/07/31 06:02:03;;;;;;;7.20;3.43;;;17.40;99.90;;;;;;6195544;23;20470;-70
2021/07/31 06:04:32;;;;;;;5.43;3.40;;;17.40;99.90;;;;;;6195612;23;20475;-70
2021/07/31 06:07:01;;;;;;;4.70;3.00;;;17.40;99.90;;;;;;6159170;23;20411;-70
2021/07/31 06:09:29;;;;;;;5.17;3.70;;;17.60;99.90;;;;;;6195352;23;20435;-69
2021/07/31 06:11:57;;;;;;;3.33;3.03;;;17.70;99.90;;;;;;6195590;23;20419;-70
2021/07/31 06:14:27;;;;;;;4.70;3.38;;;17.80;99.90;;;;;;6194360;23;20403;-69
2021/07/31 06:16:55;;;;;;;3.70;3.23;;;18.00;99.90;;;;;;6158974;23;20263;-70
2021/07/31 06:19:23;;;;;;;5.93;3.53;;;18.00;99.90;;;;;;6195184;23;20882;-70
2021/07/31 06:21:53;;;;;;;4.20;2.90;;;18.10;99.90;;;;;;6195454;23;20185;-70
2021/07/31 06:24:21;;;;;;;4.23;2.90;;;18.00;99.90;;;;;;6185341;23;20882;-70
2021/07/31 06:26:50;;;;;;;3.67;3.27;;;18.00;99.90;;;;;;6195733;23;20427;-70
2021/07/31 06:29:18;;;;;;;6.27;4.77;;;17.90;99.90;;;;;;6195419;23;20400;-70
2021/07/31 06:31:47;;;;;;;4.83;3.87;;;17.80;99.90;;;;;;6195473;23;20506;-70
2021/07/31 06:34:16;;;;;;;8.40;3.47;;;17.80;99.90;;;;;;6195690;23;20435;-70
2021/07/31 06:36:44;;;;;;;4.87;3.63;;;17.70;99.90;;;;;;6195223;23;20778;-70
2021/07/31 06:39:13;;;;;;;4.60;3.23;;;17.70;99.90;;;;;;6195816;23;20427;-70
2021/07/31 06:41:41;;;;;;;6.07;4.00;;;17.60;99.90;;;;;;6185544;23;20455;-70
2021/07/31 06:44:09;;;;;;;5.90;5.30;;;17.60;99.90;;;;;;6159048;23;20507;-69
2021/07/31 06:46:38;;;;;;;5.57;3.43;;;17.60;99.90;;;;;;6195254;23;20399;-70
2021/07/31 06:49:07;;;;;;;7.03;3.90;;;17.50;99.90;;;;;;6196551;23;20727;-70
2021/07/31 06:51:38;;;;;;;4.80;3.90;;;17.50;99.90;;;;;;6195678;23;20422;-70
2021/07/31 06:54:07;;;;;;;5.70;4.10;;;17.60;99.90;;;;;;6197938;23;20407;-70
2021/07/31 06:56:35;;;;;;;3.20;2.90;;;17.60;99.90;;;;;;6197008;23;20443;-70
2021/07/31 06:59:04;;;;;;;9.27;4.87;;;17.50;99.90;;;;;;6161667;23;20909;-70
2021/07/31 07:01:32;;;;;;;6.83;4.30;;;17.50;99.90;;;;;;6186855;23;20472;-70
2021/07/31 07:04:00;;;;;;;4.60;3.70;;;17.60;99.90;;;;;;6160597;23;20463;-70
2021/07/31 07:06:30;;;;;;;3.70;3.40;;;17.90;99.90;;;;;;6196822;23;20482;-70
2021/07/31 07:09:00;;;;;;;5.03;4.07;;;18.10;99.90;;;;;;6197333;23;20380;-70
2021/07/31 07:11:28;;;;;;;4.17;3.77;;;18.10;99.90;;;;;;6160192;23;20748;-70
2021/07/31 07:13:56;;;;;;;4.00;3.60;;;18.10;99.90;;;;;;6196690;23;20427;-70
2021/07/31 07:16:24;;;;;;;6.57;4.00;;;18.10;99.90;;;;;;6196161;23;20415;-70
2021/07/31 07:18:52;;;;;;;5.70;3.87;;;18.20;99.90;;;;;;6196559;23;20525;-70
2021/07/31 07:21:20;;;;;;;4.97;4.03;;;18.20;99.90;;;;;;6196554;23;20399;-70
2021/07/31 07:23:50;;;;;;;6.60;3.70;;;18.20;99.90;;;;;;6196728;23;20550;-70
2021/07/31 07:26:18;;;;;;;4.27;3.87;;;18.30;99.90;;;;;;6196647;23;20428;-70
2021/07/31 07:28:47;;;;;;;4.70;3.67;;;18.30;99.90;;;;;;6186888;23;20732;-70
2021/07/31 07:31:15;;;;;;;5.37;4.50;;;18.30;99.90;;;;;;6196479;23;20514;-70
2021/07/31 07:33:44;;;;;;;4.20;3.53;;;18.30;99.90;;;;;;6196563;23;20487;-70
2021/07/31 07:36:13;;;;;;;5.83;4.13;;;18.30;99.90;;;;;;6196412;23;20871;-70
2021/07/31 07:38:43;;;;;;;4.77;3.40;;;18.30;99.90;;;;;;6196528;23;20406;-70
2021/07/31 07:41:14;;;;;;;8.83;4.30;;;18.20;99.90;;;;;;6196775;23;20502;-70
2021/07/31 07:43:42;;;;;;;4.73;3.40;;;18.20;99.90;;;;;;6196446;23;20471;-70
2021/07/31 07:46:14;;;;;;;7.03;3.60;;;18.20;99.90;;;;;;6186824;23;20416;-70
2021/07/31 07:48:42;;;;;;;4.97;3.72;;;18.20;99.90;;;;;;6195609;23;20473;-70
2021/07/31 07:51:10;;;;;;;4.00;3.60;;;18.30;99.90;;;;;;6196294;23;20203;-70
2021/07/31 07:53:39;;;;;;;5.30;3.90;;;18.30;99.90;;;;;;6185868;23;20785;-70
2021/07/31 07:56:07;;;;;;;4.67;3.70;;;18.50;99.90;;;;;;6186480;23;20259;-70
2021/07/31 07:58:36;;;;;;;5.67;5.13;;;18.50;99.90;;;;;;6197152;23;20440;-70
2021/07/31 08:01:05;;;;;;;5.10;4.30;;;18.50;99.90;;;;;;6186553;23;20432;-70
2021/07/31 08:03:33;;;;;;;6.17;4.40;;;18.50;99.90;;;;;;6196519;23;20396;-70
2021/07/31 08:06:01;;;;;;;5.43;3.97;;;18.50;99.90;;;;;;6196202;23;20488;-70
2021/07/31 08:08:29;;;;;;;6.80;3.87;;;18.50;99.90;;;;;;6160006;23;20416;-70
2021/07/31 08:10:57;;;;;;;5.57;4.50;;;18.50;99.90;;;;;;6196086;23;20435;-70
2021/07/31 08:13:25;;;;;;;6.10;4.07;;;18.50;99.90;;;;;;6159978;23;20899;-70
2021/07/31 08:15:55;;;;;;;4.93;4.53;;;18.60;99.90;;;;;;6196567;23;20407;-70
2021/07/31 08:18:23;;;;;;;5.00;4.50;;;18.70;99.90;;;;;;6195818;23;20400;-70
2021/07/31 08:20:51;;;;;;;5.00;4.43;;;18.80;99.90;;;;;;6186488;23;20208;-71
2021/07/31 08:23:19;;;;;;;7.67;5.50;;;18.90;99.90;;;;;;6159573;23;20506;-70
2021/07/31 08:25:47;;;;;;;5.30;4.63;;;19.00;99.90;;;;;;6196171;23;20402;-70
2021/07/31 08:28:15;;;;;;;6.23;4.80;;;19.10;99.90;;;;;;6196306;23;20408;-70
2021/07/31 08:30:43;;;;;;;7.57;5.17;;;19.10;99.90;;;;;;6195961;23;20428;-70
2021/07/31 08:33:13;;;;;;;4.60;4.20;;;19.10;99.90;;;;;;6196205;23;20886;-71
2021/07/31 08:35:41;;;;;;;8.70;4.17;;;19.10;99.90;;;;;;6186425;23;20416;-70
2021/07/31 08:38:09;;;;;;;4.77;4.27;;;19.00;99.90;;;;;;6196731;23;20479;-70
2021/07/31 08:40:38;;;;;;;4.57;4.17;;;19.10;99.90;;;;;;6186256;23;20429;-70
2021/07/31 08:43:06;;;;;;;5.47;3.60;;;19.10;99.90;;;;;;6196452;23;20454;-70
2021/07/31 08:45:34;;;;;;;4.50;3.60;;;19.10;99.90;;;;;;6159763;23;20484;-70
2021/07/31 08:48:03;;;;;;;4.47;3.37;;;19.10;99.90;;;;;;6186338;23;20479;-71
2021/07/31 08:50:33;;;;;;;5.13;4.00;;;19.10;99.90;;;;;;6196001;23;20428;-71
2021/07/31 08:53:02;;;;;;;4.50;4.10;;;19.10;99.90;;;;;;6196244;23;20384;-70
2021/07/31 08:55:30;;;;;;;4.63;3.60;;;19.00;99.90;;;;;;6189529;23;20444;-71
2021/07/31 08:58:00;;;;;;;4.93;3.73;;;19.00;99.90;;;;;;6195793;23;20396;-70
2021/07/31 09:00:28;;;;;;;5.97;3.93;;;19.10;99.90;;;;;;6159637;23;20466;-70
2021/07/31 09:02:57;;;;;;;3.80;3.40;;;19.30;99.90;;;;;;6159667;23;20430;-70
2021/07/31 09:05:34;;;;;;;4.40;3.37;;;19.40;99.90;;;;;;6196351;23;20400;-71
2021/07/31 09:08:03;;;;;;;3.37;3.07;;;19.60;99.90;;;;;;6159727;23;20414;-71
2021/07/31 09:10:34;;;;;;;3.77;3.10;;;19.70;99.90;;;;;;6185702;23;20412;-71
2021/07/31 09:13:03;;;;;;;3.43;3.10;;;19.80;99.90;;;;;;6195953;23;20475;-70
2021/07/31 09:15:34;;;;;;;3.73;2.93;;;19.80;99.90;;;;;;6159442;23;20422;-70
2021/07/31 09:18:22;;;;;;;4.17;3.50;;;19.80;99.90;;;;;;6186213;23;20471;-71
2021/07/31 09:21:00;;;;;;;3.60;3.30;;;19.90;99.90;;;;;;6157770;23;20543;-70
2021/07/31 09:23:44;;;;;;;3.90;3.57;;;19.90;99.90;;;;;;6186067;23;20225;-70
2021/07/31 09:26:15;;;;;;;5.20;3.40;;;19.90;99.90;;;;;;6185432;23;20477;-70
2021/07/31 09:28:45;;;;;;;3.80;3.00;;;20.00;99.90;;;;;;6195688;23;20153;-70
2021/07/31 09:31:17;;;;;;;4.17;3.43;;;20.00;99.90;;;;;;6158999;23;20498;-71
2021/07/31 09:33:50;;;;;;;4.47;3.10;;;20.00;99.90;;;;;;6195720;23;20419;-70
2021/07/31 09:36:21;;;;;;;3.03;2.60;;;20.00;99.90;;;;;;6196022;23;20434;-70
2021/07/31 09:38:50;;;;;;;2.80;2.60;;;20.00;99.90;;;;;;6195725;23;20656;-70
2021/07/31 09:41:32;;;;;;;3.00;2.50;;;20.00;99.90;;;;;;6195552;23;20417;-70
2021/07/31 09:44:03;;;;;;;2.53;2.33;;;20.00;99.90;;;;;;6185533;23;20396;-70
2021/07/31 09:46:36;;;;;;;3.27;2.53;;;20.00;99.90;;;;;;6185918;23;20396;-70
2021/07/31 09:49:06;;;;;;;4.03;2.50;;;20.00;99.90;;;;;;6195226;23;20395;-70
2021/07/31 09:51:37;;;;;;;2.83;2.53;;;20.00;99.90;;;;;;6159272;23;20722;-70
2021/07/31 09:54:07;;;;;;;2.60;2.23;;;20.00;99.90;;;;;;6195809;23;20389;-70
2021/07/31 09:56:44;;;;;;;2.40;1.90;;;19.90;99.90;;;;;;6195660;23;20407;-71
2021/07/31 09:59:14;;;;;;;2.53;2.27;;;19.90;99.90;;;;;;6195477;23;20446;-70
2021/07/31 10:01:46;;;;;;;3.50;2.30;;;19.80;99.90;;;;;;6195561;23;20416;-70
2021/07/31 10:04:16;;;;;;;3.30;2.20;;;19.70;99.90;;;;;;6195528;23;20411;-70
2021/07/31 10:06:46;;;;;;;2.60;2.40;;;19.60;99.90;;;;;;6195803;23;20400;-70
2021/07/31 10:09:14;;;;;;;3.60;2.60;;;19.60;99.90;;;;;;6195712;23;20466;-70
2021/07/31 10:11:44;;;;;;;3.53;2.10;;;19.60;99.90;;;;;;6195644;23;20759;-71
2021/07/31 10:14:13;;;;;;;4.33;4.03;;;19.50;99.90;;;;;;6159002;23;20408;-70
2021/07/31 10:16:46;;;;;;;3.87;2.40;;;19.50;99.90;;;;;;6195447;23;20423;-70
2021/07/31 10:19:15;;;;;;;3.47;2.70;;;19.60;99.90;;;;;;6158266;23;20411;-70
2021/07/31 10:21:52;;;;;;;2.63;2.43;;;19.70;99.90;;;;;;6195313;23;20181;-70
2021/07/31 10:24:21;;;;;;;4.75;2.63;;;19.80;99.90;;;;;;6197765;23;20474;-71
2021/07/31 10:27:22;;;;;;;2.73;2.10;;;19.80;99.90;;;;;;6197605;23;20224;-70
2021/07/31 10:29:51;;;;;;;2.50;2.30;;;19.90;99.90;;;;;;6198325;23;20831;-70
2021/07/31 10:32:37;;;;;;;2.83;2.30;;;20.10;99.90;;;;;;6197105;23;20438;-70
2021/07/31 10:35:08;;;;;;;2.77;2.57;;;20.20;99.90;;;;;;6186524;23;20894;-71
2021/07/31 10:37:47;;;;;;;3.27;2.30;;;20.30;99.90;;;;;;6197608;23;20468;-70
2021/07/31 10:40:56;;;;;;;2.33;2.13;;;20.50;99.90;;;;;;6160967;23;20404;-70
2021/07/31 10:43:27;;;;;;;3.43;2.10;;;20.50;99.90;;;;;;6197612;23;20400;-70
2021/07/31 10:46:24;;;;;;;4.63;2.40;;;20.50;99.90;;;;;;6160889;23;20415;-70
2021/07/31 10:48:53;;;;;;;3.87;2.60;;;20.40;99.90;;;;;;6159722;23;20782;-70
2021/07/31 10:51:42;;;;;;;2.50;2.30;;;20.40;99.90;;;;;;6197359;23;20478;-70
2021/07/31 10:54:12;;;;;;;3.10;2.80;;;20.30;99.90;;;;;;6196301;23;20443;-70
2021/07/31 10:56:54;;;;;;;4.03;2.50;;;20.40;99.90;;;;;;6155370;23;20510;-70
2021/07/31 10:59:22;;;;;;;2.73;2.53;;;20.40;99.90;;;;;;6157475;23;20439;-70
2021/07/31 11:01:50;;;;;;;7.50;3.57;;;20.30;99.90;;;;;;6167045;23;20998;-70
2021/07/31 11:04:56;;;;;;;3.30;2.73;;;20.30;99.90;;;;;;6157552;23;20416;-70
2021/07/31 11:07:27;;;;;;;3.10;2.37;;;20.30;99.90;;;;;;6157748;23;20413;-70
2021/07/31 11:10:44;;;;;;;3.10;2.80;;;20.40;99.90;;;;;;6155575;23;20440;-70
2021/07/31 11:13:34;;;;;;;3.30;3.00;;;20.50;99.90;;;;;;6167246;23;20432;-70
2021/07/31 11:16:19;;;;;;;5.30;3.43;;;20.60;99.90;;;;;;6155410;23;20412;-70
2021/07/31 11:18:49;;;;;;;4.70;4.30;;;20.60;99.90;;;;;;6155640;23;20531;-70
2021/07/31 11:21:19;;;;;;;4.40;3.10;;;20.60;99.90;;;;;;6155752;23;20456;-70
2021/07/31 11:23:49;;;;;;;4.03;3.20;;;20.50;99.90;;;;;;6165850;23;20494;-71
2021/07/31 11:26:41;;;;;;;4.07;3.23;;;20.50;99.90;;;;;;6157212;23;20256;-71
2021/07/31 11:29:14;;;;;;;3.40;3.10;;;20.40;99.90;;;;;;6167705;23;20421;-70
2021/07/31 11:31:45;;;;;;;4.47;2.87;;;20.30;99.90;;;;;;6167230;23;20428;-70
2021/07/31 11:34:13;;;;;;;8.23;6.70;;;20.20;99.90;;;;;;6155109;23;20416;-70
2021/07/31 11:36:53;;;;;;;4.60;2.97;;;20.10;99.90;;;;;;6166509;23;20453;-69
2021/07/31 11:39:22;;;;;;;1.73;1.57;;;19.90;99.90;;;;;;6155502;23;20428;-70
2021/07/31 11:41:50;;;;;;;1.37;1.13;;;19.60;99.90;;;;;;6167517;23;20504;-70
2021/07/31 11:44:27;;;;;;;1.33;1.00;;;19.30;99.90;;;;;;6167572;23;20788;-70
2021/07/31 11:46:55;;;;;;;1.83;1.17;;;19.00;99.90;;;;;;6167666;23;20420;-70
2021/07/31 11:49:28;;;;;;;2.00;1.57;;;18.80;99.90;;;;;;6157075;23;20439;-70
2021/07/31 11:51:58;;;;;;;3.00;1.50;;;18.70;99.90;;;;;;6166934;23;20750;-69
2021/07/31 11:54:27;;;;;;;2.60;1.80;;;18.50;99.90;;;;;;6163855;23;20478;-70
2021/07/31 11:56:57;;;;;;;3.10;2.07;;;18.50;99.90;;;;;;6155167;23;20515;-70
2021/07/31 11:59:29;;;;;;;4.77;2.77;;;18.50;99.90;;;;;;6166740;23;20891;-70
2021/07/31 12:01:58;;;;;;;2.80;2.60;;;18.40;99.90;;;;;;6167302;23;20444;-70
2021/07/31 12:04:46;;;;;;;3.47;3.03;;;18.40;99.90;;;;;;6166685;23;20401;-70
2021/07/31 12:07:17;;;;;;;3.40;3.10;;;18.30;99.90;;;;;;6166693;23;20983;-70
2021/07/31 12:09:58;;;;;;;3.50;2.90;;;18.30;99.90;;;;;;6166852;23;20787;-70
2021/07/31 12:12:28;;;;;;;4.40;3.07;;;18.30;99.90;;;;;;6156967;23;20447;-70
2021/07/31 12:15:14;;;;;;;3.83;3.13;;;18.30;99.90;;;;;;6155086;23;20787;-70
2021/07/31 12:18:02;;;;;;;7.82;4.43;;;18.40;99.90;;;;;;6155571;23;20473;-70
2021/07/31 12:20:31;;;;;;;4.93;4.37;;;18.50;99.90;;;;;;6166949;23;20161;-70
2021/07/31 12:23:00;;;;;;;4.88;4.30;;;18.60;99.90;;;;;;6165602;23;20401;-70
2021/07/31 12:25:29;;;;;;;5.03;3.90;;;18.80;99.90;;;;;;6155056;23;20248;-69
2021/07/31 12:28:00;;;;;;;4.07;3.60;;;18.90;99.90;;;;;;6166451;23;20401;-70
2021/07/31 12:30:32;;;;;;;7.80;4.23;;;18.90;99.90;;;;;;6166873;23;20413;-70
2021/07/31 12:33:01;;;;;;;6.07;5.57;;;19.00;99.90;;;;;;6166628;23;20431;-70
2021/07/31 12:35:34;;;;;;;4.63;4.13;;;19.00;99.90;;;;;;6166630;23;20393;-69
2021/07/31 12:38:05;;;;;;;4.27;3.90;;;19.10;99.90;;;;;;6166799;23;20385;-69
2021/07/31 12:40:33;;;;;;;4.73;4.13;;;19.10;99.90;;;;;;6166601;23;20397;-70
2021/07/31 12:43:02;;;;;;;4.70;3.77;;;19.20;99.90;;;;;;6167063;23;20397;-70
2021/07/31 12:45:31;;;;;;;5.30;4.80;;;19.20;99.90;;;;;;6153543;23;20986;-69
2021/07/31 12:47:59;;;;;;;4.50;3.27;;;19.20;99.90;;;;;;6166603;23;20218;-69
2021/07/31 12:50:28;;;;;;;5.72;3.20;;;19.20;99.90;;;;;;6156323;23;20744;-70
2021/07/31 12:52:56;;;;;;;4.37;3.70;;;19.20;99.90;;;;;;6166095;23;20255;-70
2021/07/31 12:55:25;;;;;;;3.73;3.43;;;19.20;99.90;;;;;;6165915;23;20466;-70
2021/07/31 12:57:53;;;;;;;6.07;3.70;;;19.20;99.90;;;;;;6159639;23;20864;-70
2021/07/31 13:00:21;;;;;;;3.70;3.40;;;19.30;99.90;;;;;;6195976;23;20487;-70
2021/07/31 13:03:07;;;;;;;4.53;3.50;;;19.40;99.90;;;;;;6159386;23;20404;-70
2021/07/31 13:05:36;;;;;;;4.07;3.70;;;19.40;99.90;;;;;;6159402;23;20462;-70
2021/07/31 13:08:05;;;;;;;3.90;3.60;;;19.50;99.90;;;;;;6195901;23;20478;-69
2021/07/31 13:10:34;;;;;;;3.30;3.00;;;19.50;99.90;;;;;;6195832;23;20400;-70
2021/07/31 13:13:05;;;;;;;5.23;3.80;;;19.60;99.90;;;;;;6185628;23;20934;-70
2021/07/31 13:15:35;;;;;;;4.63;3.67;;;19.60;99.90;;;;;;6159566;23;20408;-70
2021/07/31 13:18:04;;;;;;;4.57;4.17;;;19.60;99.90;;;;;;6159246;23;20414;-69
2021/07/31 13:20:34;;;;;;;4.80;4.50;;;19.60;99.90;;;;;;6159151;23;20458;-70
2021/07/31 13:23:02;;;;;;;4.70;3.73;;;19.70;99.90;;;;;;6159417;23;20854;-69
2021/07/31 13:25:31;;;;;;;4.70;4.30;;;19.80;99.90;;;;;;6159484;23;20491;-69
2021/07/31 13:27:59;;;;;;;4.77;4.13;;;19.90;99.90;;;;;;6195815;23;20862;-70
2021/07/31 13:30:27;;;;;;;5.00;4.60;;;19.90;99.90;;;;;;6195730;23;20423;-69
2021/07/31 13:32:57;;;;;;;4.40;4.00;;;19.90;99.90;;;;;;6185837;23;20463;-69
2021/07/31 13:35:26;;;;;;;4.77;3.80;;;19.90;99.90;;;;;;6195654;23;20455;-70
2021/07/31 13:37:55;;;;;;;4.80;4.30;;;19.90;99.90;;;;;;6195943;23;20432;-70
2021/07/31 13:40:25;;;;;;;4.60;3.90;;;20.00;99.90;;;;;;6195746;23;20913;-69
2021/07/31 13:42:55;;;;;;;3.80;3.50;;;20.00;99.90;;;;;;6159119;23;20474;-69
2021/07/31 13:45:25;;;;;;;3.50;3.20;;;20.00;99.90;;;;;;6195615;23;20490;-69
2021/07/31 13:47:57;;;;;;;3.57;3.27;;;19.90;99.90;;;;;;6195805;23;20431;-69
2021/07/31 13:50:25;;;;;;;4.53;3.50;;;19.90;99.90;;;;;;6195873;23;20462;-69
2021/07/31 13:52:55;;;;;;;3.97;3.00;;;19.90;99.90;;;;;;6195386;23;20973;-69
2021/07/31 13:55:23;;;;;;;4.20;3.90;;;19.90;99.90;;;;;;6154068;23;20420;-69
2021/07/31 13:57:52;;;;;;;3.67;2.90;;;19.90;99.90;;;;;;6153887;23;20467;-70
2021/07/31 14:00:20;;;;;;;4.13;3.37;;;19.80;99.90;;;;;;6165473;23;20876;-70
2021/07/31 14:02:48;;;;;;;4.20;3.90;;;19.80;99.90;;;;;;6166026;23;20455;-70
2021/07/31 14:05:17;;;;;;;3.50;3.20;;;19.80;99.90;;;;;;6165517;23;20855;-69
2021/07/31 14:07:46;;;;;;;3.50;3.20;;;19.80;99.90;;;;;;6154002;23;20424;-70
2021/07/31 14:10:15;;;;;;;3.70;3.40;;;19.80;99.90;;;;;;6165285;23;20487;-70
2021/07/31 14:12:43;;;;;;;3.53;3.23;;;19.90;99.90;;;;;;6165446;23;20915;-70
2021/07/31 14:15:16;;;;;;;2.97;2.50;;;19.90;99.90;;;;;;6165775;23;20872;-69
2021/07/31 14:17:45;;;;;;;3.55;2.90;;;20.00;99.90;;;;;;6164782;23;20475;-70
2021/07/31 14:20:13;;;;;;;4.40;2.80;;;20.20;99.90;;;;;;6166106;23;20200;-70
2021/07/31 14:22:41;;;;;;;3.37;3.03;;;20.30;99.90;;;;;;6165369;23;20765;-70
2021/07/31 14:25:10;;;;;;;2.87;2.07;;;20.30;99.90;;;;;;6165461;23;20404;-69
2021/07/31 14:27:40;;;;;;;3.13;2.33;;;20.50;99.90;;;;;;6165787;23;20775;-70
2021/07/31 14:30:09;;;;;;;2.40;2.13;;;20.50;99.90;;;;;;6165418;23;20443;-70
2021/07/31 14:32:37;;;;;;;2.50;2.30;;;20.60;99.90;;;;;;6153895;23;20463;-70
2021/07/31 14:35:10;;;;;;;3.37;2.70;;;20.60;99.90;;;;;;6165271;23;20496;-70
2021/07/31 14:37:38;;;;;;;3.13;2.50;;;20.70;99.90;;;;;;6165745;23;20385;-70
2021/07/31 14:40:08;;;;;;;2.97;2.30;;;20.80;99.90;;;;;;6165608;23;20404;-70
2021/07/31 14:42:36;;;;;;;4.33;3.30;;;20.90;99.90;;;;;;6165548;23;20427;-70
2021/07/31 14:45:08;;;;;;;4.85;2.58;;;20.90;99.90;;;;;;6153725;23;20496;-70
2021/07/31 14:47:36;;;;;;;3.97;3.00;;;20.90;99.90;;;;;;6154009;23;20169;-69
2021/07/31 14:50:04;;;;;;;3.83;2.57;;;20.90;99.90;;;;;;6153778;23;20845;-70
2021/07/31 14:52:33;;;;;;;3.37;2.50;;;20.90;99.90;;;;;;6153893;23;20919;-70
2021/07/31 14:55:02;;;;;;;5.03;2.43;;;20.80;99.90;;;;;;6165223;23;20439;-70
2021/07/31 14:57:30;;;;;;;5.10;2.73;;;20.80;99.90;;;;;;6195108;23;20491;-71
2021/07/31 14:59:58;;;;;;;3.90;2.70;;;20.70;99.90;;;;;;6195305;23;20918;-70
2021/07/31 15:02:28;;;;;;;3.30;2.70;;;20.60;99.90;;;;;;6195003;23;20418;-70
2021/07/31 15:04:56;;;;;;;5.20;3.30;;;20.50;99.90;;;;;;6195729;23;20479;-70
2021/07/31 15:07:24;;;;;;;5.68;4.00;;;20.50;99.90;;;;;;6195206;23;20660;-70
2021/07/31 15:09:52;;;;;;;4.30;2.90;;;20.50;99.90;;;;;;6196129;23;20169;-70
2021/07/31 15:12:21;;;;;;;9.80;3.40;;;20.50;99.90;;;;;;6197006;23;20502;-70
2021/07/31 15:14:49;;;;;;;5.55;3.75;;;20.40;99.90;;;;;;6195720;23;20407;-70
2021/07/31 15:17:19;;;;;;;4.00;2.93;;;20.50;99.90;;;;;;6196953;23;20179;-70
2021/07/31 15:19:49;;;;;;;4.47;2.93;;;20.50;99.90;;;;;;6197227;23;20491;-70
2021/07/31 15:22:18;;;;;;;5.53;3.13;;;20.50;99.90;;;;;;6186836;23;20420;-70
2021/07/31 15:24:46;;;;;;;3.57;3.20;;;20.40;99.90;;;;;;6196870;23;20487;-70
2021/07/31 15:27:14;;;;;;;3.50;3.07;;;20.40;99.90;;;;;;6197214;23;20483;-71
2021/07/31 15:29:43;;;;;;;3.63;2.97;;;20.30;99.90;;;;;;6197263;23;20407;-70
2021/07/31 15:32:11;;;;;;;5.03;3.53;;;20.30;99.90;;;;;;6196617;23;20474;-70
2021/07/31 15:34:39;;;;;;;4.60;3.10;;;20.30;99.90;;;;;;6196723;23;20759;-71
2021/07/31 15:37:08;;;;;;;4.82;4.32;;;20.20;99.90;;;;;;6159395;23;20415;-71
2021/07/31 15:39:36;;;;;;;8.77;6.10;;;20.30;99.90;;;;;;6196752;23;20248;-71
2021/07/31 15:42:05;;;;;;;5.35;3.90;;;20.20;99.90;;;;;;6196243;23;20438;-71
2021/07/31 15:44:35;;;;;;;4.97;4.13;;;20.20;99.90;;;;;;6160372;23;20216;-71
2021/07/31 15:47:03;;;;;;;4.57;4.00;;;20.10;99.90;;;;;;6197166;23;20436;-70
2021/07/31 15:49:32;;;;;;;5.73;4.13;;;20.10;99.90;;;;;;6196688;23;20397;-71